Julian, WV (25529)

4:16 PM EDT on August 29, 2015 (GMT -0400)
SOD | | Change Station
CLOSE
Current Station
Personal Weather Station
Location: Sod, WV
Elevation: 771 ft
Nearby Weather Stations

Elev 771 ft 38.27 °N, 81.89 °W | Updated 1 second ago

Mostly Cloudy
Mostly Cloudy
85.1 °F
Feels Like 87 °F
N
1.0
Wind Variable Wind from WSW
Gusts 6.0 mph

Today
High -- | Low -- °F
--% Chance of Precip.
Yesterday
High -- | Low -- °F
Precip. -- in
6:54 AM 8:01 PM
Full, 100% visible
Pressure 30.11 in
Visibility 10.0 miles
Clouds Scattered Clouds 3700 ft
Scattered Clouds 9000 ft
Heat Index 87 °F
Dew Point 65 °F
Humidity 51%
Rainfall 0.00 in
Snow Depth Not available.
UV 5 out of 12
Pollen 9.30 out of 12
Air Quality Not available.
Flu Activity Not available.
METAR KCRW 291954Z 00000KT 10SM SCT037TCU SCT090 29/19 A3013 RMK AO2 RAE13 SLP194 TCU NE-SE AND W CB DSNT NE P0000 T02940194 $
Pressure 30.11 in
Visibility 10.0 miles
Clouds Scattered Clouds 3700 ft
Scattered Clouds 9000 ft
Heat Index 87 °F
Dew Point 65 °F
Humidity 51%
Rainfall 0.00 in
Snow Depth Not available.
UV 5 out of 12
Pollen 9.30 out of 12
Air Quality Not available.
Flu Activity Not available.
METAR KCRW 291954Z 00000KT 10SM SCT037TCU SCT090 29/19 A3013 RMK AO2 RAE13 SLP194 TCU NE-SE AND W CB DSNT NE P0000 T02940194 $

10-Day Weather Forecast

×

Almanac

Astronomy

Aug. 29, 2015 Rise Set
Actual Time
Civil Twilight
Nautical Twilight
Astronomical Twilight
Moon
Length of Visible Light
Length of Day
Tomorrow will be .
, % of the Moon is Illuminated

Today's Extremes

State Highs State Lows

Community

WunderPhotos

Upload Photos

1,850,795 photos uploaded!

WunderBlogs® & News

Nearby

Air Quality

  Air Quality AQ Index Pollutant
Not available.

Snow Depth

Station Depth Elevation

Earthquake Activity

City Distance Mag. Time & Date
Minimum magnitude displayed is 2.5.

Coastal Water Temperatures

Place Temperature

Stations

Nearby Weather Stations

Station Location Temp. Windchill Dew Point Humidity Wind Precip. Elev Updated Type